Aegean Orion — SVA2487 — position and weather

sailwx.info

Track history (hours):
 
Tides and Currents Weather Stations Pressure Air Temp Water Temp Dewpoint Dewpoint Depression Visibility Wind Speed Wind Dir Waves Ship Positions

Aegean Orion

Last reported at 2016-Jun-28 07:33 UTC. Time now 2016-Jun-28 07:59 UTC.
Position N 38°02' E 023°32'.

; draft 2.4 m.

Type: Ship. MMSI: 239550200.

Date/timePositionNaut miles runAvg speedWind from/ knotsBaromVisibWave heightAir tempDewpointWater temp
2016-Jun-28 07:33N 38°02' E 023°32'0 0.0
2016-Jun-28 06:33N 38°02' E 023°32'5 2.6
2016-Jun-28 04:33N 37°57' E 023°34'0 0.0
2016-Jun-28 03:34N 37°57' E 023°34'0 0.0
2016-Jun-28 02:33N 37°57' E 023°34'0 0.0
2016-Jun-28 01:34N 37°57' E 023°34'0 0.0
2016-Jun-28 00:33N 37°57' E 023°34'0 0.0
2016-Jun-27 23:34N 37°57' E 023°34'0 0.0
2016-Jun-27 22:34N 37°57' E 023°34'0 0.0
2016-Jun-27 21:34N 37°57' E 023°34'0 0.1
2016-Jun-27 20:33N 37°57' E 023°34'0 0.0
2016-Jun-27 19:34N 37°57' E 023°34'3 2.8
2016-Jun-27 18:33N 37°56' E 023°37'1 1.1
2016-Jun-27 17:34N 37°57' E 023°38'2 1.8
2016-Jun-27 16:33N 37°57' E 023°36'2 1.8
2016-Jun-27 15:33N 37°57' E 023°34'0 0.0
2016-Jun-27 14:33N 37°57' E 023°34'0 0.0
2016-Jun-27 13:33N 37°57' E 023°34'0 0.0
2016-Jun-27 12:33N 37°57' E 023°34'0 0.0
2016-Jun-27 11:33N 37°57' E 023°34'4 3.6
2016-Jun-27 10:33N 37°54' E 023°33'1 1.2
2016-Jun-27 09:33N 37°53' E 023°32'0 0.0
2016-Jun-27 08:33N 37°53' E 023°32'4 4.5
2016-Jun-27 07:34N 37°57' E 023°34'6 5.6
2016-Jun-27 06:33N 38°02' E 023°32'0 0.0
2016-Jun-27 05:33N 38°02' E 023°32'0 0.0
2016-Jun-26 15:04N 38°02' E 023°32'4 7.6
2016-Jun-26 14:33N 37°58' E 023°33'5 4.7
2016-Jun-26 13:33N 37°57' E 023°38'0 0.0
2016-Jun-26 12:33N 37°57' E 023°38'1 1.4
2016-Jun-26 11:34N 37°56' E 023°37'5 5.3
2016-Jun-26 10:33N 38°01' E 023°32'2 0.1
2016-Jun-25 14:19N 38°02' E 023°32'1 1.3
2016-Jun-25 13:34N 38°02' E 023°31'0 0.0
2016-Jun-25 12:33N 38°02' E 023°31'0 0.0
2016-Jun-25 11:33N 38°02' E 023°31'0 0.0
2016-Jun-25 10:33N 38°02' E 023°31'0 0.0
2016-Jun-25 09:34N 38°02' E 023°31'2 2.5
2016-Jun-25 08:33N 38°00' E 023°33'6 5.6
2016-Jun-25 07:34N 37°57' E 023°38'0 0.0
2016-Jun-25 06:33N 37°57' E 023°38'0 0.0
2016-Jun-25 05:33N 37°57' E 023°38'1 1.2
2016-Jun-25 04:34N 37°56' E 023°37'2 2.2
2016-Jun-25 03:33N 37°57' E 023°34'0 0.2
2016-Jun-25 02:34N 37°57' E 023°34'0 0.0
2016-Jun-25 01:33N 37°57' E 023°34'0 0.0
2016-Jun-25 00:33N 37°57' E 023°34'0 0.0
2016-Jun-24 23:33N 37°57' E 023°34'0 0.0
2016-Jun-24 22:33N 37°57' E 023°34'0 0.0
2016-Jun-24 21:33N 37°57' E 023°34'0 0.0
2016-Jun-24 20:33N 37°57' E 023°34'0 0.0
2016-Jun-24 19:33N 37°57' E 023°34'3 3.4
2016-Jun-24 18:33N 37°57' E 023°38'0 0.1
2016-Jun-24 17:33N 37°57' E 023°38'1 1.5
2016-Jun-24 16:33N 37°56' E 023°37'6 6.5
2016-Jun-24 15:34N 38°02' E 023°32'1 0.0
2016-Jun-23 11:33N 38°02' E 023°31'0 0.0
2016-Jun-23 10:33N 38°02' E 023°31'0 0.0
2016-Jun-23 09:34N 38°02' E 023°31'0 0.0
2016-Jun-23 08:33N 38°02' E 023°31'4 3.6
2016-Jun-23 07:33N 38°02' E 023°35'0 0.0
2016-Jun-23 05:33N 38°02' E 023°35'0 0.3
2016-Jun-23 04:33N 38°02' E 023°35'2 0.1
2016-Jun-22 10:33N 38°02' E 023°32'6 6.3
2016-Jun-22 09:33N 37°57' E 023°36'1 0.8
2016-Jun-22 08:33N 37°56' E 023°37'0 0.0
2016-Jun-22 07:34N 37°56' E 023°37'0 0.0
2016-Jun-22 06:33N 37°56' E 023°37'0 0.0
2016-Jun-22 05:33N 37°56' E 023°37'4 4.0
2016-Jun-22 04:34N 37°58' E 023°33'4 0.3
2016-Jun-21 12:33N 38°02' E 023°32'3 2.6
2016-Jun-21 11:33N 38°02' E 023°35'0 0.0
2016-Jun-21 10:33N 38°02' E 023°35'0 0.0
2016-Jun-21 09:33N 38°02' E 023°35'0 0.0
2016-Jun-21 08:33N 38°02' E 023°35'4 0.2
2016-Jun-20 14:33N 37°59' E 023°33'5 4.8
2016-Jun-20 13:33N 37°57' E 023°38'0 0.0
2016-Jun-20 12:33N 37°57' E 023°38'3 2.9
2016-Jun-20 11:33N 37°57' E 023°35'0 0.3
2016-Jun-20 10:33N 37°57' E 023°35'0 0.0
2016-Jun-20 09:33N 37°57' E 023°35'0 0.0
2016-Jun-20 08:34N 37°57' E 023°35'0 0.0
2016-Jun-20 07:33N 37°57' E 023°35'0 0.0
2016-Jun-20 06:33N 37°57' E 023°35'0 0.0
2016-Jun-20 05:33N 37°57' E 023°35'0 0.0
2016-Jun-20 04:33N 37°57' E 023°35'0 0.0
2016-Jun-20 03:33N 37°57' E 023°35'0 0.0
2016-Jun-20 02:34N 37°57' E 023°35'0 0.0
2016-Jun-20 01:33N 37°57' E 023°35'0 0.0
2016-Jun-20 00:33N 37°57' E 023°35'1 1.1
2016-Jun-19 23:33N 37°57' E 023°36'2 2.1
2016-Jun-19 22:33N 37°57' E 023°38'0 0.0
2016-Jun-19 21:33N 37°57' E 023°38'0 0.0
2016-Jun-19 20:34N 37°57' E 023°38'4 3.6
2016-Jun-19 19:33N 37°57' E 023°34'0 0.0
2016-Jun-19 18:33N 37°57' E 023°34'0 0.1
2016-Jun-19 17:33N 37°57' E 023°34'5 5.2
2016-Jun-19 16:34N 38°02' E 023°32'  
Track history (hours):
 
Tides and Currents Weather Stations Pressure Air Temp Water Temp Dewpoint Dewpoint Depression Visibility Wind Speed Wind Dir Waves Ship Positions

Aegean Orion

Last reported at 2016-Jun-28 07:33 UTC. Time now 2016-Jun-28 07:59 UTC.
Position N 38°02' E 023°32'.

; draft 2.4 m.

Type: Ship. MMSI: 239550200.

Date/timePositionNaut miles runAvg speedWind from/ knotsBaromVisibWave heightAir tempDewpointWater temp
2016-Jun-28 07:33N 38°02' E 023°32'0 0.0
2016-Jun-28 06:33N 38°02' E 023°32'5 2.6
2016-Jun-28 04:33N 37°57' E 023°34'0 0.0
2016-Jun-28 03:34N 37°57' E 023°34'0 0.0
2016-Jun-28 02:33N 37°57' E 023°34'0 0.0
2016-Jun-28 01:34N 37°57' E 023°34'0 0.0
2016-Jun-28 00:33N 37°57' E 023°34'0 0.0
2016-Jun-27 23:34N 37°57' E 023°34'0 0.0
2016-Jun-27 22:34N 37°57' E 023°34'0 0.0
2016-Jun-27 21:34N 37°57' E 023°34'0 0.1
2016-Jun-27 20:33N 37°57' E 023°34'0 0.0
2016-Jun-27 19:34N 37°57' E 023°34'3 2.8
2016-Jun-27 18:33N 37°56' E 023°37'1 1.1
2016-Jun-27 17:34N 37°57' E 023°38'2 1.8
2016-Jun-27 16:33N 37°57' E 023°36'2 1.8
2016-Jun-27 15:33N 37°57' E 023°34'0 0.0
2016-Jun-27 14:33N 37°57' E 023°34'0 0.0
2016-Jun-27 13:33N 37°57' E 023°34'0 0.0
2016-Jun-27 12:33N 37°57' E 023°34'0 0.0
2016-Jun-27 11:33N 37°57' E 023°34'4 3.6
2016-Jun-27 10:33N 37°54' E 023°33'1 1.2
2016-Jun-27 09:33N 37°53' E 023°32'0 0.0
2016-Jun-27 08:33N 37°53' E 023°32'4 4.5
2016-Jun-27 07:34N 37°57' E 023°34'6 5.6
2016-Jun-27 06:33N 38°02' E 023°32'0 0.0
2016-Jun-27 05:33N 38°02' E 023°32'0 0.0
2016-Jun-26 15:04N 38°02' E 023°32'4 7.6
2016-Jun-26 14:33N 37°58' E 023°33'5 4.7
2016-Jun-26 13:33N 37°57' E 023°38'0 0.0
2016-Jun-26 12:33N 37°57' E 023°38'1 1.4
2016-Jun-26 11:34N 37°56' E 023°37'5 5.3
2016-Jun-26 10:33N 38°01' E 023°32'2 0.1
2016-Jun-25 14:19N 38°02' E 023°32'1 1.3
2016-Jun-25 13:34N 38°02' E 023°31'0 0.0
2016-Jun-25 12:33N 38°02' E 023°31'0 0.0
2016-Jun-25 11:33N 38°02' E 023°31'0 0.0
2016-Jun-25 10:33N 38°02' E 023°31'0 0.0
2016-Jun-25 09:34N 38°02' E 023°31'2 2.5
2016-Jun-25 08:33N 38°00' E 023°33'6 5.6
2016-Jun-25 07:34N 37°57' E 023°38'0 0.0
2016-Jun-25 06:33N 37°57' E 023°38'0 0.0
2016-Jun-25 05:33N 37°57' E 023°38'1 1.2
2016-Jun-25 04:34N 37°56' E 023°37'2 2.2
2016-Jun-25 03:33N 37°57' E 023°34'0 0.2
2016-Jun-25 02:34N 37°57' E 023°34'0 0.0
2016-Jun-25 01:33N 37°57' E 023°34'0 0.0
2016-Jun-25 00:33N 37°57' E 023°34'0 0.0
2016-Jun-24 23:33N 37°57' E 023°34'0 0.0
2016-Jun-24 22:33N 37°57' E 023°34'0 0.0
2016-Jun-24 21:33N 37°57' E 023°34'0 0.0
2016-Jun-24 20:33N 37°57' E 023°34'0 0.0
2016-Jun-24 19:33N 37°57' E 023°34'3 3.4
2016-Jun-24 18:33N 37°57' E 023°38'0 0.1
2016-Jun-24 17:33N 37°57' E 023°38'1 1.5
2016-Jun-24 16:33N 37°56' E 023°37'6 6.5
2016-Jun-24 15:34N 38°02' E 023°32'1 0.0
2016-Jun-23 11:33N 38°02' E 023°31'0 0.0
2016-Jun-23 10:33N 38°02' E 023°31'0 0.0
2016-Jun-23 09:34N 38°02' E 023°31'0 0.0
2016-Jun-23 08:33N 38°02' E 023°31'4 3.6
2016-Jun-23 07:33N 38°02' E 023°35'0 0.0
2016-Jun-23 05:33N 38°02' E 023°35'0 0.3
2016-Jun-23 04:33N 38°02' E 023°35'2 0.1
2016-Jun-22 10:33N 38°02' E 023°32'6 6.3
2016-Jun-22 09:33N 37°57' E 023°36'1 0.8
2016-Jun-22 08:33N 37°56' E 023°37'0 0.0
2016-Jun-22 07:34N 37°56' E 023°37'0 0.0
2016-Jun-22 06:33N 37°56' E 023°37'0 0.0
2016-Jun-22 05:33N 37°56' E 023°37'4 4.0
2016-Jun-22 04:34N 37°58' E 023°33'4 0.3
2016-Jun-21 12:33N 38°02' E 023°32'3 2.6
2016-Jun-21 11:33N 38°02' E 023°35'0 0.0
2016-Jun-21 10:33N 38°02' E 023°35'0 0.0
2016-Jun-21 09:33N 38°02' E 023°35'0 0.0
2016-Jun-21 08:33N 38°02' E 023°35'4 0.2
2016-Jun-20 14:33N 37°59' E 023°33'5 4.8
2016-Jun-20 13:33N 37°57' E 023°38'0 0.0
2016-Jun-20 12:33N 37°57' E 023°38'3 2.9
2016-Jun-20 11:33N 37°57' E 023°35'0 0.3
2016-Jun-20 10:33N 37°57' E 023°35'0 0.0
2016-Jun-20 09:33N 37°57' E 023°35'0 0.0
2016-Jun-20 08:34N 37°57' E 023°35'0 0.0
2016-Jun-20 07:33N 37°57' E 023°35'0 0.0
2016-Jun-20 06:33N 37°57' E 023°35'0 0.0
2016-Jun-20 05:33N 37°57' E 023°35'0 0.0
2016-Jun-20 04:33N 37°57' E 023°35'0 0.0
2016-Jun-20 03:33N 37°57' E 023°35'0 0.0
2016-Jun-20 02:34N 37°57' E 023°35'0 0.0
2016-Jun-20 01:33N 37°57' E 023°35'0 0.0
2016-Jun-20 00:33N 37°57' E 023°35'1 1.1
2016-Jun-19 23:33N 37°57' E 023°36'2 2.1
2016-Jun-19 22:33N 37°57' E 023°38'0 0.0
2016-Jun-19 21:33N 37°57' E 023°38'0 0.0
2016-Jun-19 20:34N 37°57' E 023°38'4 3.6
2016-Jun-19 19:33N 37°57' E 023°34'0 0.0
2016-Jun-19 18:33N 37°57' E 023°34'0 0.1
2016-Jun-19 17:33N 37°57' E 023°34'5 5.2
2016-Jun-19 16:34N 38°02' E 023°32'  

Dump ship's entire track history